Terminal Aerodrome Forecast
Issued by NWS

Home | Current Version | Previous Version | Text Only | Print | Product List | Glossary On
Versions: 1 2 3 4 5 6 7 8 9 10 11 12 13 14 15
000
FTUS41 KBOX 241725
TAFHYA
TAF
KHYA 241725Z 2418/2518 33016G32KT P6SM SKC
     FM250100 33014G27KT P6SM FEW250
     FM250900 33011G19KT P6SM SKC
     FM251500 32007KT P6SM FEW200=

USA.gov is the U.S. government's official web portal to all federal, state and local government web resources and services.